createdAt,value
2022-10-09T00:01:07.074Z,8.02
2022-10-09T00:03:34.489Z,9.80
2022-10-09T00:06:01.470Z,9.38
2022-10-09T00:08:28.422Z,9.65
2022-10-09T00:10:55.508Z,8.93
2022-10-09T00:13:22.376Z,9.18
2022-10-09T00:15:49.147Z,9.85
2022-10-09T00:18:17.911Z,9.45
2022-10-09T00:20:46.358Z,9.43
2022-10-09T00:23:18.371Z,8.55
2022-10-09T00:25:59.199Z,9.35
2022-10-09T00:28:28.026Z,8.52
2022-10-09T00:30:55.320Z,8.70
2022-10-09T00:33:22.360Z,9.25
2022-10-09T00:35:49.621Z,8.63
2022-10-09T00:38:16.527Z,8.27
2022-10-09T00:40:43.257Z,9.07
2022-10-09T00:43:38.911Z,7.90
2022-10-09T00:46:05.923Z,8.45
2022-10-09T00:48:33.683Z,7.97
2022-10-09T00:51:01.763Z,8.88
2022-10-09T00:53:30.708Z,8.05
2022-10-09T00:55:58.139Z,8.45
2022-10-09T00:58:25.786Z,8.63
2022-10-09T01:00:53.218Z,7.95
2022-10-09T01:03:19.894Z,8.52
2022-10-09T01:05:58.328Z,7.60
2022-10-09T01:08:38.678Z,8.93
2022-10-09T01:11:31.542Z,8.88
2022-10-09T01:14:05.554Z,9.23
2022-10-09T01:16:38.832Z,8.57
2022-10-09T01:19:12.477Z,9.57
2022-10-09T01:21:47.156Z,9.20
2022-10-09T01:24:25.973Z,9.48
2022-10-09T01:27:06.050Z,9.20
2022-10-09T01:29:46.611Z,9.85
2022-10-09T01:32:18.221Z,8.40
2022-10-09T01:34:46.203Z,9.37
2022-10-09T01:37:14.791Z,9.20
2022-10-09T01:39:45.496Z,8.57
2022-10-09T01:42:13.867Z,9.25
2022-10-09T01:44:41.285Z,9.23
2022-10-09T01:47:19.720Z,8.50
2022-10-09T01:50:18.659Z,8.98
2022-10-09T01:52:51.296Z,9.38
2022-10-09T01:55:36.229Z,8.10
2022-10-09T01:58:14.126Z,8.30
2022-10-09T02:00:45.651Z,8.23
2022-10-09T02:03:15.218Z,8.32
2022-10-09T02:05:44.549Z,9.10
2022-10-09T02:08:14.976Z,8.70
2022-10-09T02:10:43.696Z,9.73
2022-10-09T02:16:03.990Z,10.35
2022-10-09T02:18:40.826Z,8.52
2022-10-09T02:21:13.681Z,9.25
2022-10-09T02:23:44.027Z,9.15
2022-10-09T02:26:12.542Z,9.07
2022-10-09T02:28:43.911Z,10.23
2022-10-09T02:31:27.422Z,10.20
2022-10-09T02:33:59.004Z,8.95
2022-10-09T02:36:26.861Z,9.05
2022-10-09T02:38:55.584Z,9.27
2022-10-09T02:41:23.356Z,8.93
2022-10-09T02:43:50.504Z,9.57
2022-10-09T02:46:17.685Z,9.10
2022-10-09T02:48:44.418Z,8.80
2022-10-09T02:51:11.480Z,9.02
2022-10-09T02:53:38.161Z,9.43
2022-10-09T02:56:05.014Z,9.88
2022-10-09T02:58:33.043Z,10.18
2022-10-09T03:00:59.839Z,10.57
2022-10-09T03:03:26.600Z,9.90
2022-10-09T03:06:14.448Z,9.68
2022-10-09T03:08:43.729Z,9.32
2022-10-09T03:11:21.930Z,9.40
2022-10-09T03:13:49.362Z,11.38
2022-10-09T03:16:24.447Z,9.20
2022-10-09T03:18:52.325Z,9.65
2022-10-09T03:21:26.887Z,9.25
2022-10-09T03:23:54.282Z,9.55
2022-10-09T03:26:23.452Z,8.80
2022-10-09T03:28:51.356Z,8.85
2022-10-09T03:31:39.691Z,10.23
2022-10-09T03:34:06.292Z,9.82
2022-10-09T03:36:32.932Z,9.63
2022-10-09T03:38:59.651Z,9.48
2022-10-09T03:41:26.340Z,10.15
2022-10-09T03:43:53.033Z,9.77
2022-10-09T03:46:19.804Z,9.43
2022-10-09T03:48:46.441Z,10.30
2022-10-09T03:51:13.121Z,9.38
2022-10-09T03:53:39.838Z,9.82
2022-10-09T03:56:06.798Z,9.93
2022-10-09T03:58:33.436Z,9.65
2022-10-09T04:01:00.184Z,9.40
2022-10-09T04:03:29.820Z,9.27
2022-10-09T04:05:56.502Z,10.23
2022-10-09T04:08:23.193Z,9.27
2022-10-09T04:10:59.623Z,9.65
2022-10-09T04:13:26.304Z,9.25
2022-10-09T04:15:53.966Z,9.43
2022-10-09T04:18:21.061Z,10.93
2022-10-09T04:20:52.185Z,10.35
2022-10-09T04:23:21.104Z,11.45
2022-10-09T04:25:47.950Z,10.68
2022-10-09T04:28:14.681Z,9.57
2022-10-09T04:30:41.582Z,10.40
2022-10-09T04:33:12.784Z,10.85
2022-10-09T04:35:49.731Z,9.68
2022-10-09T04:38:16.429Z,9.65
2022-10-09T04:40:43.127Z,9.65
2022-10-09T04:43:09.991Z,9.95
2022-10-09T04:45:40.584Z,10.30
2022-10-09T04:48:07.196Z,11.07
2022-10-09T04:50:33.856Z,11.43
2022-10-09T04:53:00.574Z,10.88
2022-10-09T04:55:27.233Z,9.90
2022-10-09T04:57:53.873Z,12.27
2022-10-09T05:00:20.551Z,10.85
2022-10-09T05:02:47.563Z,10.35
2022-10-09T05:05:14.528Z,11.05
2022-10-09T05:07:41.195Z,11.10
2022-10-09T05:10:08.325Z,11.50
2022-10-09T05:12:34.943Z,11.55
2022-10-09T05:15:01.578Z,10.63
2022-10-09T05:17:28.286Z,10.00
2022-10-09T05:19:55.051Z,11.10
2022-10-09T05:22:21.768Z,10.63
2022-10-09T05:24:48.453Z,11.23
2022-10-09T05:27:15.130Z,12.18
2022-10-09T05:29:41.792Z,11.85
2022-10-09T05:32:08.522Z,11.93
2022-10-09T05:34:35.619Z,12.05
2022-10-09T05:37:02.362Z,11.98
2022-10-09T05:39:29.162Z,10.68
2022-10-09T05:41:55.920Z,11.07
2022-10-09T05:44:22.659Z,11.98
2022-10-09T05:46:52.331Z,12.07
2022-10-09T05:49:19.014Z,13.05
2022-10-09T05:51:47.313Z,12.48
2022-10-09T05:54:16.218Z,11.98
2022-10-09T05:56:45.473Z,12.32
2022-10-09T05:59:14.994Z,13.05
2022-10-09T06:01:44.276Z,13.23
2022-10-09T06:04:17.651Z,13.02
2022-10-09T06:06:47.506Z,14.18
2022-10-09T06:09:16.121Z,13.27
2022-10-09T06:11:43.032Z,13.63
2022-10-09T06:14:12.685Z,14.55
2022-10-09T06:16:41.839Z,13.63
2022-10-09T06:19:11.766Z,14.13
2022-10-09T06:21:38.487Z,14.25
2022-10-09T06:24:06.979Z,14.18
2022-10-09T06:26:34.166Z,14.10
2022-10-09T06:29:02.568Z,13.90
2022-10-09T06:31:32.033Z,13.55
2022-10-09T06:34:00.773Z,15.57
2022-10-09T06:36:29.939Z,13.07
2022-10-09T06:38:58.700Z,12.85
2022-10-09T06:41:26.963Z,12.27
2022-10-09T06:44:02.125Z,12.57
2022-10-09T06:46:32.302Z,12.75
2022-10-09T06:49:00.017Z,11.52
2022-10-09T06:51:30.709Z,9.75
2022-10-09T06:53:59.789Z,9.60
2022-10-09T06:56:28.951Z,8.57
2022-10-09T06:58:56.309Z,9.27
2022-10-09T07:01:26.904Z,10.60
2022-10-09T07:04:02.557Z,8.40
2022-10-09T10:23:40.987Z,2.80
2022-10-09T10:26:14.401Z,2.47
2022-10-09T10:28:48.628Z,2.65
2022-10-09T10:31:23.090Z,2.58
2022-10-09T10:34:00.607Z,2.60
2022-10-09T10:36:36.504Z,2.60
2022-10-09T10:39:25.019Z,2.47
2022-10-09T10:42:02.074Z,2.22
2022-10-09T10:45:04.209Z,2.15
2022-10-09T10:47:50.154Z,2.03
2022-10-09T10:50:30.632Z,2.03
2022-10-09T10:53:29.963Z,2.17
2022-10-09T10:59:09.407Z,2.00
2022-10-09T11:02:22.985Z,2.28
2022-10-09T11:08:00.031Z,2.20
2022-10-09T11:11:06.639Z,1.90
2022-10-09T11:14:14.513Z,1.98
2022-10-09T11:17:11.633Z,2.15
2022-10-09T11:23:04.183Z,1.95
2022-10-09T11:25:51.093Z,2.17
2022-10-09T11:28:22.556Z,2.05
2022-10-09T11:48:01.300Z,1.70
2022-10-09T11:50:36.326Z,1.92
2022-10-09T11:56:22.890Z,1.88
2022-10-09T11:58:57.814Z,1.85
2022-10-09T12:39:12.285Z,2.10
2022-10-09T12:41:39.562Z,2.08
2022-10-09T12:44:08.236Z,1.58
2022-10-09T12:46:36.854Z,1.73
2022-10-09T12:49:05.177Z,2.20
2022-10-09T12:51:49.396Z,2.03
2022-10-09T12:54:35.751Z,1.70
2022-10-09T12:57:24.111Z,2.05
2022-10-09T13:00:09.215Z,2.33
2022-10-09T13:02:48.279Z,1.88
2022-10-09T13:05:23.686Z,2.00
2022-10-09T13:08:09.903Z,1.50
2022-10-09T13:11:15.704Z,2.15
2022-10-09T13:14:04.273Z,2.13
2022-10-09T13:16:46.123Z,2.08
2022-10-09T13:19:37.020Z,1.98
2022-10-09T13:26:03.152Z,2.30
2022-10-09T13:42:59.474Z,1.97
2022-10-09T13:45:36.552Z,1.70
2022-10-09T13:48:12.923Z,1.75
2022-10-09T13:50:53.879Z,1.63
2022-10-09T13:53:34.669Z,1.58
2022-10-09T13:56:09.534Z,1.55
2022-10-09T13:58:56.027Z,2.10
2022-10-09T14:01:42.372Z,1.73
2022-10-09T14:07:24.918Z,2.08
2022-10-09T14:10:02.135Z,1.83
2022-10-09T14:15:29.382Z,1.42
2022-10-09T14:18:10.277Z,1.77
2022-10-09T14:20:45.517Z,1.88
2022-10-09T14:23:32.028Z,1.92
2022-10-09T14:26:16.628Z,1.88
2022-10-09T14:28:59.092Z,1.42
2022-10-09T14:31:36.521Z,1.85
2022-10-09T14:34:17.168Z,1.80
2022-10-09T14:36:53.210Z,2.00
2022-10-09T14:39:41.765Z,2.15
2022-10-09T14:42:14.845Z,1.77
2022-10-09T14:44:54.152Z,1.42
2022-10-09T14:47:22.252Z,1.75
2022-10-09T14:50:09.675Z,2.20
2022-10-09T14:52:46.991Z,1.67
2022-10-09T14:55:31.809Z,1.73
2022-10-09T14:58:13.412Z,1.88
2022-10-09T15:00:52.015Z,1.85
2022-10-09T15:03:32.532Z,1.60
2022-10-09T15:06:00.619Z,1.90
2022-10-09T15:08:29.743Z,1.42
2022-10-09T15:10:56.845Z,1.85
2022-10-09T15:13:24.053Z,1.50
2022-10-09T15:15:52.570Z,1.65
2022-10-09T15:18:20.291Z,1.52
2022-10-09T15:20:48.136Z,1.80
2022-10-09T15:23:15.621Z,1.90
2022-10-09T15:25:49.762Z,2.20
2022-10-09T15:28:20.811Z,1.83
2022-10-09T15:30:49.183Z,1.90
2022-10-09T15:33:16.755Z,1.65
2022-10-09T15:35:44.410Z,1.98
2022-10-09T15:38:19.041Z,1.30
2022-10-09T15:40:48.840Z,1.98
2022-10-09T15:43:17.679Z,1.75
2022-10-09T15:45:45.243Z,2.30
2022-10-09T15:48:18.011Z,1.90
2022-10-09T15:56:14.856Z,1.98
2022-10-09T15:59:04.727Z,1.95
2022-10-09T16:01:47.852Z,1.98
2022-10-09T16:04:30.425Z,1.73
2022-10-09T16:07:16.113Z,1.88
2022-10-09T16:10:03.213Z,1.60
2022-10-09T16:15:26.940Z,1.73
2022-10-09T16:18:18.161Z,2.03
2022-10-09T16:23:31.844Z,1.70
2022-10-09T16:26:08.483Z,2.13
2022-10-09T16:28:47.292Z,2.28
2022-10-09T16:31:32.691Z,1.90
2022-10-09T16:34:13.629Z,2.10
2022-10-09T16:36:51.895Z,2.22
2022-10-09T16:39:38.994Z,1.85
2022-10-09T16:42:17.944Z,2.00
2022-10-09T16:44:48.168Z,1.52
2022-10-09T16:47:15.396Z,2.47
2022-10-09T16:49:45.386Z,1.70
2022-10-09T16:52:19.956Z,2.13
2022-10-09T16:54:51.815Z,2.05
2022-10-09T16:57:49.142Z,2.00
2022-10-09T17:00:44.275Z,2.00
2022-10-09T17:03:17.585Z,2.42
2022-10-09T17:05:47.654Z,2.20
2022-10-09T17:08:22.487Z,1.88
2022-10-09T17:11:04.004Z,2.17
2022-10-09T17:13:33.899Z,2.13
2022-10-09T17:16:07.761Z,2.10
2022-10-09T17:18:51.077Z,2.60
2022-10-09T17:21:34.137Z,2.42
2022-10-09T17:24:11.360Z,2.42
2022-10-09T17:26:50.407Z,2.75
2022-10-09T17:29:39.126Z,2.58
2022-10-09T17:32:13.305Z,2.10
2022-10-09T17:37:49.731Z,2.47
2022-10-09T17:40:24.460Z,2.10
2022-10-09T17:42:57.977Z,2.28
2022-10-09T17:45:35.809Z,3.22
2022-10-09T17:48:15.938Z,2.17
2022-10-09T17:53:47.635Z,2.60
2022-10-09T17:56:27.925Z,3.00
2022-10-09T17:59:18.073Z,2.50
2022-10-09T18:01:48.156Z,2.72
2022-10-09T18:04:25.241Z,2.70
2022-10-09T18:07:04.646Z,2.83
2022-10-09T18:09:41.450Z,2.85
2022-10-09T18:12:21.718Z,2.85
2022-10-09T18:15:03.777Z,3.28
2022-10-09T18:17:46.243Z,2.70
2022-10-09T18:20:25.192Z,3.50
2022-10-09T18:22:52.376Z,3.50
2022-10-09T18:25:19.585Z,3.58
2022-10-09T18:28:01.278Z,3.97
2022-10-09T18:30:58.782Z,3.55
2022-10-09T18:33:38.361Z,3.20
2022-10-09T18:36:27.136Z,2.83
2022-10-09T18:39:27.124Z,3.35
2022-10-09T18:42:02.581Z,3.22
2022-10-09T18:45:00.266Z,3.45
2022-10-09T18:47:38.404Z,3.83
2022-10-09T18:50:21.362Z,4.22
2022-10-09T18:53:26.635Z,4.53
2022-10-09T18:56:37.306Z,4.20
2022-10-09T19:04:53.130Z,3.40
2022-10-09T19:10:12.318Z,3.38
2022-10-09T19:15:16.509Z,4.00
2022-10-09T19:17:52.488Z,3.85
2022-10-09T19:20:29.254Z,3.42
2022-10-09T19:23:05.466Z,4.00
2022-10-09T19:25:38.935Z,3.40
2022-10-09T19:28:19.001Z,3.30
2022-10-09T19:30:50.363Z,3.88
2022-10-09T19:33:25.511Z,3.50
2022-10-09T19:36:12.478Z,3.22
2022-10-09T19:38:46.066Z,2.63
2022-10-09T19:41:18.261Z,2.72
2022-10-09T19:43:50.946Z,3.20
2022-10-09T19:48:58.647Z,2.90
2022-10-09T19:51:37.814Z,2.90
2022-10-09T19:54:17.644Z,2.72
2022-10-09T19:56:44.984Z,2.85
2022-10-09T19:59:12.183Z,2.50
2022-10-09T20:01:40.460Z,2.85
2022-10-09T20:04:32.746Z,2.95
2022-10-09T20:07:00.471Z,2.93
2022-10-09T20:09:40.570Z,2.65
2022-10-09T20:12:11.930Z,3.22
2022-10-09T20:14:48.364Z,3.05
2022-10-09T20:17:22.516Z,2.55
2022-10-09T20:19:54.913Z,3.08
2022-10-09T20:22:26.559Z,3.35
2022-10-09T20:25:03.403Z,2.72
2022-10-09T20:27:36.812Z,2.90
2022-10-09T20:30:10.762Z,3.03
2022-10-09T20:32:41.788Z,2.80
2022-10-09T20:35:14.998Z,3.30
2022-10-09T20:37:55.971Z,2.80
2022-10-09T20:40:33.088Z,3.15
2022-10-09T20:43:10.194Z,2.88
2022-10-09T20:45:53.252Z,2.70
2022-10-09T20:48:25.986Z,2.90
2022-10-09T20:51:01.001Z,3.08
2022-10-09T20:53:31.549Z,2.83
2022-10-09T20:56:05.466Z,2.90
2022-10-09T20:58:39.840Z,2.42
2022-10-09T21:01:21.466Z,3.30
2022-10-09T21:04:07.287Z,3.28
2022-10-09T21:06:38.059Z,3.22
2022-10-09T21:09:13.918Z,3.58
2022-10-09T21:11:58.189Z,3.05
2022-10-09T21:14:37.890Z,3.40
2022-10-09T21:17:11.049Z,3.22
2022-10-09T21:19:50.677Z,3.03
2022-10-09T21:22:21.816Z,3.13
2022-10-09T21:24:51.432Z,2.92
2022-10-09T21:27:18.642Z,3.50
2022-10-09T21:29:45.759Z,3.13
2022-10-09T21:32:24.655Z,3.10
2022-10-09T21:35:15.288Z,3.10
2022-10-09T21:37:45.610Z,3.08
2022-10-09T21:40:22.546Z,3.88
2022-10-09T21:42:55.400Z,3.58
2022-10-09T21:45:36.608Z,4.15
2022-10-09T21:48:21.497Z,4.75
2022-10-09T21:50:57.015Z,4.13
2022-10-09T21:53:36.620Z,4.95
2022-10-09T21:56:08.565Z,4.70
2022-10-09T21:58:44.372Z,4.57
2022-10-09T22:01:30.096Z,4.28
2022-10-09T22:04:01.992Z,4.50
2022-10-09T22:06:47.122Z,4.20
2022-10-09T22:09:29.888Z,4.60
2022-10-09T22:12:03.808Z,4.80
2022-10-09T22:14:32.360Z,4.88
2022-10-09T22:17:11.201Z,5.30
2022-10-09T22:19:41.531Z,5.43
2022-10-09T22:22:13.281Z,5.60
2022-10-09T22:24:57.074Z,5.17
2022-10-09T22:30:15.298Z,5.93
2022-10-09T22:32:48.353Z,5.88
2022-10-09T22:35:21.999Z,6.15
2022-10-09T22:40:47.198Z,6.32
2022-10-09T22:43:22.492Z,6.10
2022-10-09T22:45:59.468Z,5.47
2022-10-09T22:48:32.130Z,6.38
2022-10-09T22:53:37.774Z,6.05
2022-10-09T22:56:06.150Z,5.38
2022-10-09T22:58:33.536Z,6.70
2022-10-09T23:01:05.451Z,6.63
2022-10-09T23:03:36.098Z,6.93
2022-10-09T23:06:24.562Z,6.68
2022-10-09T23:08:57.688Z,6.45
2022-10-09T23:11:37.209Z,7.05
2022-10-09T23:14:09.259Z,7.22
2022-10-09T23:16:46.045Z,7.43
2022-10-09T23:19:20.752Z,7.82
2022-10-09T23:21:55.812Z,7.32
2022-10-09T23:24:36.473Z,7.68
2022-10-09T23:27:13.877Z,7.68
2022-10-09T23:29:54.292Z,8.07
2022-10-09T23:32:27.785Z,7.43
2022-10-09T23:35:01.018Z,7.30
2022-10-09T23:37:34.512Z,7.32
2022-10-09T23:40:14.392Z,8.35
2022-10-09T23:42:53.305Z,8.05
2022-10-09T23:45:23.305Z,9.00
2022-10-09T23:47:57.830Z,6.95
2022-10-09T23:50:32.961Z,7.70
2022-10-09T23:53:12.194Z,7.18
2022-10-09T23:55:48.868Z,7.55
2022-10-09T23:58:21.037Z,7.18
